createdAt,value
2023-03-03T00:01:08.360Z,7.67
2023-03-03T00:03:36.662Z,7.67
2023-03-03T00:06:06.107Z,7.68
2023-03-03T00:08:34.365Z,7.68
2023-03-03T00:11:06.295Z,7.69
2023-03-03T00:13:41.104Z,7.69
2023-03-03T00:16:16.137Z,7.71
2023-03-03T00:18:46.641Z,7.74
2023-03-03T00:21:29.185Z,7.72
2023-03-03T00:24:04.798Z,7.69
2023-03-03T00:26:38.741Z,7.70
2023-03-03T00:29:29.605Z,7.68
2023-03-03T00:32:08.917Z,7.69
2023-03-03T00:34:38.512Z,7.67
2023-03-03T00:37:24.828Z,7.69
2023-03-03T00:39:53.115Z,7.68
2023-03-03T00:42:23.553Z,7.68
2023-03-03T00:44:58.139Z,7.70
2023-03-03T00:47:32.541Z,7.70
2023-03-03T00:50:26.764Z,7.72
2023-03-03T00:53:02.503Z,7.74
2023-03-03T00:55:31.607Z,7.73
2023-03-03T00:58:01.189Z,7.73
2023-03-03T01:00:33.946Z,7.71
2023-03-03T01:03:05.340Z,7.74
2023-03-03T01:05:33.952Z,7.73
2023-03-03T01:08:03.171Z,7.69
2023-03-03T01:10:35.661Z,7.72
2023-03-03T01:13:06.552Z,7.69
2023-03-03T01:15:34.979Z,7.68
2023-03-03T01:18:03.290Z,7.71
2023-03-03T01:20:31.420Z,7.69
2023-03-03T01:22:59.630Z,7.69
2023-03-03T01:25:27.769Z,7.68
2023-03-03T01:27:55.917Z,7.72
2023-03-03T01:30:25.890Z,7.73
2023-03-03T01:32:54.813Z,7.73
2023-03-03T01:35:23.288Z,7.74
2023-03-03T01:37:53.883Z,7.79
2023-03-03T01:40:24.895Z,7.80
2023-03-03T01:42:53.583Z,7.82
2023-03-03T01:45:23.630Z,7.83
2023-03-03T01:47:59.842Z,7.83
2023-03-03T01:50:37.403Z,7.81
2023-03-03T01:53:08.227Z,7.80
2023-03-03T01:55:40.124Z,7.80
2023-03-03T01:58:12.315Z,7.80
2023-03-03T02:00:43.622Z,7.82
2023-03-03T02:03:13.372Z,7.81
2023-03-03T02:05:43.211Z,7.79
2023-03-03T02:08:16.062Z,7.79
2023-03-03T02:10:46.148Z,7.76
2023-03-03T02:13:14.726Z,7.78
2023-03-03T02:15:42.887Z,7.81
2023-03-03T02:18:14.468Z,7.78
2023-03-03T02:20:54.763Z,7.77
2023-03-03T02:23:28.555Z,7.79
2023-03-03T02:26:12.193Z,7.80
2023-03-03T02:28:42.081Z,7.77
2023-03-03T02:31:14.385Z,7.78
2023-03-03T02:33:43.173Z,7.80
2023-03-03T02:36:14.843Z,7.81
2023-03-03T02:38:49.661Z,7.82
2023-03-03T02:41:28.329Z,7.82
2023-03-03T02:44:00.456Z,7.83
2023-03-03T02:46:29.173Z,7.83
2023-03-03T02:48:57.308Z,7.85
2023-03-03T02:51:25.463Z,7.86
2023-03-03T02:53:53.613Z,7.86
2023-03-03T02:56:23.893Z,7.84
2023-03-03T02:58:52.259Z,7.85
2023-03-03T03:01:20.816Z,7.83
2023-03-03T03:03:49.020Z,7.85
2023-03-03T03:06:17.246Z,7.87
2023-03-03T03:08:45.512Z,7.87
2023-03-03T03:11:13.637Z,7.86
2023-03-03T03:13:43.141Z,7.87
2023-03-03T03:16:11.555Z,7.89
2023-03-03T03:18:39.706Z,7.89
2023-03-03T03:21:09.731Z,7.89
2023-03-03T03:23:38.034Z,7.90
2023-03-03T03:26:07.221Z,7.90
2023-03-03T03:28:36.329Z,7.89
2023-03-03T03:31:07.935Z,7.87
2023-03-03T03:33:36.104Z,7.81
2023-03-03T03:36:06.393Z,7.86
2023-03-03T03:38:36.778Z,7.86
2023-03-03T03:41:05.888Z,7.85
2023-03-03T03:43:34.666Z,7.85
2023-03-03T03:46:02.976Z,7.86
2023-03-03T03:48:32.826Z,7.87
2023-03-03T03:51:00.927Z,7.86
2023-03-03T03:53:29.306Z,7.85
2023-03-03T03:55:57.452Z,7.84
2023-03-03T03:58:25.637Z,7.82
2023-03-03T04:00:53.991Z,7.81
2023-03-03T04:03:22.411Z,7.82
2023-03-03T04:05:54.150Z,7.78
2023-03-03T04:08:22.538Z,7.77
2023-03-03T04:10:50.749Z,7.77
2023-03-03T04:13:18.898Z,7.75
2023-03-03T04:15:47.114Z,7.78
2023-03-03T04:18:15.260Z,7.80
2023-03-03T04:20:43.604Z,7.80
2023-03-03T04:23:13.176Z,7.83
2023-03-03T04:25:41.508Z,7.76
2023-03-03T04:28:10.770Z,7.77
2023-03-03T04:30:38.909Z,7.78
2023-03-03T04:33:07.109Z,7.77
2023-03-03T04:35:35.253Z,7.76
2023-03-03T04:38:03.548Z,7.77
2023-03-03T04:40:33.107Z,7.77
2023-03-03T04:43:01.181Z,7.77
2023-03-03T04:45:29.299Z,7.77
2023-03-03T04:47:57.431Z,7.77
2023-03-03T04:50:25.545Z,7.76
2023-03-03T04:52:53.762Z,7.74
2023-03-03T04:55:22.571Z,7.73
2023-03-03T04:57:52.073Z,7.75
2023-03-03T05:00:20.962Z,7.75
2023-03-03T05:02:50.052Z,7.74
2023-03-03T05:05:18.381Z,7.72
2023-03-03T05:07:46.540Z,7.69
2023-03-03T05:10:14.660Z,7.68
2023-03-03T05:12:42.837Z,7.70
2023-03-03T05:15:12.764Z,7.71
2023-03-03T05:17:41.258Z,7.71
2023-03-03T05:20:11.359Z,7.69
2023-03-03T05:22:39.482Z,7.69
2023-03-03T05:25:09.925Z,7.69
2023-03-03T05:27:38.101Z,7.68
2023-03-03T05:30:07.408Z,7.66
2023-03-03T05:32:37.108Z,7.67
2023-03-03T05:35:06.281Z,7.66
2023-03-03T05:37:34.430Z,7.67
2023-03-03T05:40:02.677Z,7.65
2023-03-03T05:42:30.845Z,7.65
2023-03-03T05:44:59.002Z,7.64
2023-03-03T05:47:27.154Z,7.64
2023-03-03T05:49:56.661Z,7.64
2023-03-03T05:52:25.458Z,7.67
2023-03-03T05:54:53.652Z,7.65
2023-03-03T05:57:21.751Z,7.66
2023-03-03T05:59:49.941Z,7.65
2023-03-03T06:02:18.092Z,7.66
2023-03-03T06:04:46.320Z,7.66
2023-03-03T06:07:15.867Z,7.64
2023-03-03T06:09:44.054Z,7.63
2023-03-03T06:12:12.408Z,7.64
2023-03-03T06:14:40.593Z,7.64
2023-03-03T06:17:08.750Z,7.64
2023-03-03T06:19:37.757Z,7.59
2023-03-03T06:22:06.023Z,7.58
2023-03-03T06:24:35.567Z,7.61
2023-03-03T06:27:03.775Z,7.62
2023-03-03T06:29:31.945Z,7.62
2023-03-03T06:32:00.341Z,7.61
2023-03-03T06:34:31.801Z,7.61
2023-03-03T06:36:59.906Z,7.58
2023-03-03T06:39:28.312Z,7.59
2023-03-03T06:41:57.835Z,7.59
2023-03-03T06:44:28.555Z,7.57
2023-03-03T06:46:59.045Z,7.59
2023-03-03T06:49:27.181Z,7.57
2023-03-03T06:51:55.345Z,7.57
2023-03-03T06:54:31.016Z,7.59
2023-03-03T06:57:06.933Z,7.59
2023-03-03T06:59:35.138Z,7.58
2023-03-03T07:02:03.453Z,7.57
2023-03-03T07:04:34.541Z,7.63
2023-03-03T07:07:12.372Z,7.59
2023-03-03T07:09:40.540Z,7.55
2023-03-03T07:12:17.467Z,7.58
2023-03-03T07:14:50.775Z,7.58
2023-03-03T07:17:21.163Z,7.57
2023-03-03T07:19:49.951Z,7.58
2023-03-03T07:22:19.824Z,7.56
2023-03-03T07:24:52.533Z,7.56
2023-03-03T07:27:25.686Z,7.56
2023-03-03T07:29:56.399Z,7.56
2023-03-03T07:32:29.487Z,7.60
2023-03-03T07:34:58.243Z,7.59
2023-03-03T07:37:35.860Z,7.59
2023-03-03T07:40:26.703Z,7.59
2023-03-03T07:42:56.206Z,7.60
2023-03-03T07:45:29.216Z,7.69
2023-03-03T07:48:02.800Z,7.66
2023-03-03T07:50:31.312Z,7.64
2023-03-03T07:53:01.517Z,7.65
2023-03-03T07:55:35.562Z,7.64
2023-03-03T07:58:24.304Z,7.66
2023-03-03T08:01:28.615Z,7.69
2023-03-03T08:03:58.017Z,7.69
2023-03-03T08:06:41.449Z,7.70
2023-03-03T08:09:32.206Z,7.69
2023-03-03T08:12:07.417Z,7.72
2023-03-03T08:14:38.600Z,7.74
2023-03-03T08:17:16.029Z,7.74
2023-03-03T08:19:44.167Z,7.74
2023-03-03T08:22:16.555Z,7.75
2023-03-03T08:24:44.963Z,7.75
2023-03-03T08:27:13.187Z,7.75
2023-03-03T08:29:42.691Z,7.75
2023-03-03T08:32:10.838Z,7.75
2023-03-03T08:34:39.069Z,7.76
2023-03-03T08:37:07.234Z,7.79
2023-03-03T08:39:35.634Z,7.77
2023-03-03T08:42:05.813Z,7.79
2023-03-03T08:44:33.952Z,7.80
2023-03-03T08:47:03.497Z,7.81
2023-03-03T08:49:31.583Z,7.83
2023-03-03T08:52:00.880Z,7.84
2023-03-03T08:54:29.056Z,7.85
2023-03-03T08:56:57.143Z,7.84
2023-03-03T08:59:25.285Z,7.83
2023-03-03T09:01:53.418Z,7.83
2023-03-03T09:04:22.928Z,7.82
2023-03-03T09:06:51.424Z,7.83
2023-03-03T09:09:19.506Z,7.82
2023-03-03T09:11:48.123Z,7.83
2023-03-03T09:14:17.893Z,7.81
2023-03-03T09:16:51.299Z,7.81
2023-03-03T09:19:28.202Z,7.79
2023-03-03T09:21:57.870Z,7.81
2023-03-03T09:24:28.603Z,7.81
2023-03-03T09:26:58.940Z,7.81
2023-03-03T09:29:29.384Z,7.81
2023-03-03T09:31:59.222Z,7.81
2023-03-03T09:34:39.280Z,7.80
2023-03-03T09:37:20.781Z,7.81
2023-03-03T09:39:51.288Z,7.81
2023-03-03T09:42:38.897Z,7.82
2023-03-03T09:45:27.923Z,7.81
2023-03-03T09:48:23.216Z,7.82
2023-03-03T09:51:03.509Z,7.84
2023-03-03T09:53:47.841Z,7.87
2023-03-03T09:56:20.607Z,7.89
2023-03-03T09:59:01.187Z,7.94
2023-03-03T10:01:49.502Z,7.98
2023-03-03T10:04:34.566Z,8.00
2023-03-03T10:07:20.503Z,7.97
2023-03-03T10:10:17.972Z,7.98
2023-03-03T10:12:58.217Z,7.96
2023-03-03T10:15:35.582Z,7.94
2023-03-03T10:18:13.379Z,7.93
2023-03-03T10:20:58.602Z,7.92
2023-03-03T10:23:44.042Z,7.94
2023-03-03T10:26:31.669Z,7.96
2023-03-03T10:29:23.107Z,8.01
2023-03-03T10:32:02.254Z,8.01
2023-03-03T10:34:49.895Z,8.03
2023-03-03T10:37:27.925Z,8.09
2023-03-03T10:40:10.986Z,8.13
2023-03-03T10:43:01.517Z,8.17
2023-03-03T10:45:54.242Z,8.24
2023-03-03T10:48:41.176Z,8.29
2023-03-03T10:51:24.050Z,8.35
2023-03-03T10:54:00.966Z,8.39
2023-03-03T10:56:52.485Z,8.36
2023-03-03T10:59:41.928Z,8.36
2023-03-03T11:02:19.531Z,8.31
2023-03-03T11:05:24.315Z,8.24
2023-03-03T11:07:59.001Z,8.23
2023-03-03T11:10:48.406Z,8.23
2023-03-03T11:13:25.393Z,8.16
2023-03-03T11:16:05.917Z,8.14
2023-03-03T11:18:47.631Z,8.19
2023-03-03T11:21:19.229Z,8.18
2023-03-03T11:24:25.316Z,8.26
2023-03-03T11:27:17.534Z,8.31
2023-03-03T11:29:59.836Z,8.36
2023-03-03T11:32:38.301Z,8.46
2023-03-03T11:35:20.622Z,8.52
2023-03-03T11:37:58.519Z,8.58
2023-03-03T11:40:29.966Z,8.65
2023-03-03T11:43:02.529Z,8.65
2023-03-03T11:45:40.454Z,8.89
2023-03-03T11:48:15.980Z,9.12
2023-03-03T11:50:51.189Z,9.23
2023-03-03T11:53:30.586Z,9.26
2023-03-03T11:56:08.694Z,9.25
2023-03-03T11:58:46.057Z,9.18
2023-03-03T12:01:24.159Z,9.02
2023-03-03T12:03:59.725Z,8.95
2023-03-03T12:06:37.592Z,8.84
2023-03-03T12:09:23.849Z,8.78
2023-03-03T12:11:55.994Z,8.73
2023-03-03T12:14:49.051Z,8.62
2023-03-03T12:17:31.449Z,8.53
2023-03-03T12:20:09.664Z,8.48
2023-03-03T12:22:45.905Z,8.40
2023-03-03T12:25:34.791Z,8.32
2023-03-03T12:28:10.881Z,8.31
2023-03-03T12:30:56.314Z,8.28
2023-03-03T12:33:39.203Z,8.24
2023-03-03T12:36:21.492Z,8.19
2023-03-03T12:38:56.784Z,8.16
2023-03-03T12:41:34.405Z,8.12
2023-03-03T12:44:11.601Z,8.13
2023-03-03T12:46:47.361Z,8.14
2023-03-03T12:49:17.086Z,8.13
2023-03-03T12:51:56.743Z,8.13
2023-03-03T12:54:57.109Z,8.13
2023-03-03T12:57:35.160Z,8.14
2023-03-03T13:00:24.420Z,8.17
2023-03-03T13:03:01.219Z,8.22
2023-03-03T13:05:44.647Z,8.24
2023-03-03T13:08:32.486Z,8.24
2023-03-03T13:11:14.362Z,8.28
2023-03-03T13:13:50.882Z,8.28
2023-03-03T13:16:40.262Z,8.32
2023-03-03T13:19:13.722Z,8.33
2023-03-03T13:21:50.131Z,8.28
2023-03-03T13:24:23.239Z,8.31
2023-03-03T13:26:55.693Z,8.32
2023-03-03T13:29:28.731Z,8.32
2023-03-03T13:32:01.430Z,8.42
2023-03-03T13:34:41.686Z,8.47
2023-03-03T13:37:19.889Z,8.50
2023-03-03T13:39:58.341Z,8.56
2023-03-03T13:42:33.904Z,8.57
2023-03-03T13:45:08.375Z,8.64
2023-03-03T13:47:47.387Z,8.66
2023-03-03T13:50:23.608Z,8.71
2023-03-03T13:53:08.574Z,8.77
2023-03-03T13:55:43.994Z,8.83
2023-03-03T13:58:22.741Z,8.90
2023-03-03T14:00:58.870Z,8.86
2023-03-03T14:04:24.275Z,9.04
2023-03-03T14:06:57.576Z,9.14
2023-03-03T14:09:44.169Z,9.11
2023-03-03T14:12:21.838Z,9.04
2023-03-03T14:14:58.451Z,9.07
2023-03-03T14:17:34.957Z,9.08
2023-03-03T14:20:14.263Z,9.11
2023-03-03T14:22:48.203Z,9.06
2023-03-03T14:25:18.061Z,9.01
2023-03-03T14:28:02.790Z,8.70
2023-03-03T14:30:38.074Z,8.49
2023-03-03T14:33:21.942Z,8.24
2023-03-03T14:36:05.015Z,8.02
2023-03-03T14:38:46.552Z,7.94
2023-03-03T14:41:19.281Z,7.87
2023-03-03T14:43:58.882Z,7.77
2023-03-03T14:46:40.369Z,7.63
2023-03-03T14:49:16.605Z,7.64
2023-03-03T14:51:47.480Z,7.68
2023-03-03T14:54:25.626Z,7.72
2023-03-03T14:57:01.587Z,7.79
2023-03-03T14:59:30.039Z,7.89
2023-03-03T15:02:30.082Z,7.99
2023-03-03T15:05:17.609Z,8.02
2023-03-03T15:07:47.427Z,8.17
2023-03-03T15:10:29.332Z,8.28
2023-03-03T15:12:59.428Z,8.34
2023-03-03T15:15:29.090Z,8.42
2023-03-03T15:18:04.251Z,8.51
2023-03-03T15:20:40.412Z,8.58
2023-03-03T15:23:40.008Z,8.53
2023-03-03T15:26:13.224Z,8.58
2023-03-03T15:28:55.988Z,8.60
2023-03-03T15:31:37.485Z,8.62
2023-03-03T15:34:23.164Z,8.62
2023-03-03T15:36:58.743Z,8.64
2023-03-03T15:39:36.243Z,8.55
2023-03-03T15:42:07.170Z,8.56
2023-03-03T15:44:52.030Z,8.53
2023-03-03T15:47:50.176Z,8.49
2023-03-03T15:50:45.026Z,8.49
2023-03-03T15:53:28.609Z,8.45
2023-03-03T15:56:13.311Z,8.45
2023-03-03T15:59:05.750Z,8.36
2023-03-03T16:01:40.073Z,8.39
2023-03-03T16:04:12.899Z,8.34
2023-03-03T16:06:51.237Z,8.29
2023-03-03T16:09:31.001Z,8.22
2023-03-03T16:12:10.254Z,8.11
2023-03-03T16:15:04.011Z,8.03
2023-03-03T16:17:43.773Z,7.92
2023-03-03T16:20:23.204Z,7.84
2023-03-03T16:23:02.829Z,7.76
2023-03-03T16:25:43.668Z,7.72
2023-03-03T16:28:20.294Z,7.66
2023-03-03T16:30:53.702Z,7.63
2023-03-03T16:33:32.793Z,7.63
2023-03-03T16:36:10.042Z,7.67
2023-03-03T16:38:41.366Z,7.73
2023-03-03T16:41:14.136Z,7.78
2023-03-03T16:44:04.566Z,7.82
2023-03-03T16:46:37.281Z,7.82
2023-03-03T16:49:14.678Z,7.81
2023-03-03T16:51:50.069Z,7.78
2023-03-03T16:54:28.231Z,7.73
2023-03-03T16:57:06.408Z,7.68
2023-03-03T17:00:00.389Z,7.60
2023-03-03T17:02:52.597Z,7.55
2023-03-03T17:05:31.081Z,7.52
2023-03-03T17:08:14.611Z,7.49
2023-03-03T17:10:47.487Z,7.44
2023-03-03T17:13:38.831Z,7.40
2023-03-03T17:16:16.058Z,7.39
2023-03-03T17:18:58.135Z,7.36
2023-03-03T17:21:39.186Z,7.36
2023-03-03T17:24:18.974Z,7.33
2023-03-03T17:26:57.339Z,7.36
2023-03-03T17:29:40.736Z,7.30
2023-03-03T17:32:25.678Z,7.32
2023-03-03T17:35:09.966Z,7.34
2023-03-03T17:37:50.352Z,7.36
2023-03-03T17:40:43.407Z,7.34
2023-03-03T17:43:14.748Z,7.34
2023-03-03T17:45:46.834Z,7.33
2023-03-03T17:48:41.269Z,7.29
2023-03-03T17:51:26.124Z,7.27
2023-03-03T17:54:09.697Z,7.35
2023-03-03T17:56:47.268Z,7.34
2023-03-03T17:59:31.146Z,7.29
2023-03-03T18:02:20.842Z,7.26
2023-03-03T18:05:06.185Z,7.24
2023-03-03T18:07:55.639Z,7.26
2023-03-03T18:10:50.680Z,7.24
2023-03-03T18:13:35.797Z,7.24
2023-03-03T18:16:19.348Z,7.26
2023-03-03T18:19:13.492Z,7.26
2023-03-03T18:21:53.211Z,7.25
2023-03-03T18:24:31.882Z,7.24
2023-03-03T18:27:28.930Z,7.24
2023-03-03T18:30:29.679Z,7.23
2023-03-03T18:33:12.839Z,7.20
2023-03-03T18:35:43.510Z,7.21
2023-03-03T18:38:40.032Z,7.21
2023-03-03T18:41:12.507Z,7.23
2023-03-03T18:44:24.813Z,7.19
2023-03-03T18:46:58.811Z,7.17
2023-03-03T18:49:53.744Z,7.17
2023-03-03T18:52:25.383Z,7.19
2023-03-03T18:55:21.678Z,7.18
2023-03-03T18:58:24.199Z,7.19
2023-03-03T19:00:56.452Z,7.18
2023-03-03T19:03:35.233Z,7.20
2023-03-03T19:06:04.231Z,7.21
2023-03-03T19:08:53.913Z,7.23
2023-03-03T19:11:38.774Z,7.25
2023-03-03T19:14:33.141Z,7.26
2023-03-03T19:17:41.206Z,7.27
2023-03-03T19:20:14.361Z,7.26
2023-03-03T19:22:48.109Z,7.24
2023-03-03T19:25:22.759Z,7.22
2023-03-03T19:28:04.795Z,7.20
2023-03-03T19:30:56.091Z,7.19
2023-03-03T19:33:52.312Z,7.17
2023-03-03T19:36:57.678Z,7.10
2023-03-03T19:39:51.760Z,7.13
2023-03-03T19:42:32.889Z,7.14
2023-03-03T19:45:20.667Z,7.14
2023-03-03T19:47:55.686Z,7.17
2023-03-03T19:50:38.184Z,7.25
2023-03-03T19:53:16.543Z,7.26
2023-03-03T19:55:58.688Z,7.28
2023-03-03T19:58:36.647Z,7.27
2023-03-03T20:01:15.194Z,7.27
2023-03-03T20:04:07.567Z,7.25
2023-03-03T20:06:50.837Z,7.22
2023-03-03T20:09:25.975Z,7.24
2023-03-03T20:12:09.735Z,7.24
2023-03-03T20:14:50.145Z,7.21
2023-03-03T20:17:44.511Z,7.13
2023-03-03T20:20:35.646Z,7.12
2023-03-03T20:23:16.671Z,7.10
2023-03-03T20:25:47.766Z,7.16
2023-03-03T20:28:33.860Z,7.17
2023-03-03T20:31:11.377Z,7.19
2023-03-03T20:33:51.266Z,7.17
2023-03-03T20:36:28.760Z,7.18
2023-03-03T20:39:07.986Z,7.14
2023-03-03T20:41:51.806Z,7.17
2023-03-03T20:44:32.738Z,7.19
2023-03-03T20:47:08.126Z,7.21
2023-03-03T20:49:57.882Z,7.25
2023-03-03T20:52:34.568Z,7.23
2023-03-03T20:55:16.242Z,7.20
2023-03-03T20:57:53.116Z,7.21
2023-03-03T21:00:27.089Z,7.26
2023-03-03T21:03:07.051Z,7.26
2023-03-03T21:05:35.388Z,7.25
2023-03-03T21:08:08.134Z,7.27
2023-03-03T21:10:41.551Z,7.26
2023-03-03T21:13:29.513Z,7.26
2023-03-03T21:16:03.389Z,7.24
2023-03-03T21:18:32.265Z,7.25
2023-03-03T21:21:00.432Z,7.25
2023-03-03T21:23:28.711Z,7.23
2023-03-03T21:25:59.328Z,7.25
2023-03-03T21:28:29.409Z,7.23
2023-03-03T21:31:02.166Z,7.22
2023-03-03T21:33:50.330Z,7.23
2023-03-03T21:36:20.267Z,7.22
2023-03-03T21:38:48.971Z,7.23
2023-03-03T21:41:19.593Z,7.24
2023-03-03T21:43:49.834Z,7.25
2023-03-03T21:46:24.525Z,7.26
2023-03-03T21:48:53.468Z,7.27
2023-03-03T21:51:24.388Z,7.25
2023-03-03T21:53:52.621Z,7.24
2023-03-03T21:56:22.159Z,7.23
2023-03-03T21:58:50.267Z,7.23
2023-03-03T22:01:18.497Z,7.22
2023-03-03T22:03:46.980Z,7.18
2023-03-03T22:06:15.262Z,7.17
2023-03-03T22:08:45.815Z,7.16
2023-03-03T22:11:15.590Z,7.16
2023-03-03T22:13:45.421Z,7.11
2023-03-03T22:16:13.782Z,7.07
2023-03-03T22:18:41.975Z,7.02
2023-03-03T22:21:10.081Z,6.99
2023-03-03T22:23:38.406Z,6.98
2023-03-03T22:26:06.628Z,6.95
2023-03-03T22:28:34.756Z,6.96
2023-03-03T22:31:04.351Z,6.99
2023-03-03T22:33:32.562Z,7.02
2023-03-03T22:36:00.688Z,7.04
2023-03-03T22:38:28.846Z,7.03
2023-03-03T22:40:56.965Z,7.03
2023-03-03T22:43:25.838Z,7.04
2023-03-03T22:45:54.192Z,7.08
2023-03-03T22:48:24.455Z,7.11
2023-03-03T22:50:53.083Z,7.11
2023-03-03T22:53:21.929Z,7.11
2023-03-03T22:55:50.250Z,7.11
2023-03-03T22:58:20.168Z,7.11
2023-03-03T23:00:49.248Z,7.14
2023-03-03T23:03:17.751Z,7.14
2023-03-03T23:05:51.677Z,7.16
2023-03-03T23:08:21.879Z,7.17
2023-03-03T23:10:50.100Z,7.15
2023-03-03T23:13:18.472Z,7.16
2023-03-03T23:15:46.766Z,7.17
2023-03-03T23:18:15.052Z,7.18
2023-03-03T23:20:46.085Z,7.20
2023-03-03T23:23:15.817Z,7.22
2023-03-03T23:25:44.282Z,7.21
2023-03-03T23:28:15.505Z,7.20
2023-03-03T23:30:43.952Z,7.18
2023-03-03T23:33:12.237Z,7.18
2023-03-03T23:35:40.445Z,7.20
2023-03-03T23:38:08.688Z,7.19
2023-03-03T23:40:38.249Z,7.18
2023-03-03T23:43:11.456Z,7.18
2023-03-03T23:45:39.555Z,7.18
2023-03-03T23:48:08.157Z,7.18
2023-03-03T23:50:37.292Z,7.17
2023-03-03T23:53:06.193Z,7.18
2023-03-03T23:55:34.489Z,7.18
2023-03-03T23:58:04.095Z,7.18
